• Join FlightAware (Why Join?)
  • Login
  • US Flag 
03:06AM EDT


 

Airport Tracker/Info


-or-


 

Live Flight TrackerFlight Track Log ✈ JUS208 ✈ 12-Jun-2013 ✈ KPAH - KYIP

Flight Track Log - Related Links

Times and Time Zones

All times are in EDT time to prevent confusion due to time zone crossing. See the JUS208 flight status page for this flight to view local times or setup timezone preferences in your user account.

Time Position Orientation Groundspeed Altitude Reporting Facility
EDT Latitude Longitude Course Direction KTS MPH feet Rate Location/Type
06:30AM 37.1392 -88.6656 48° Northeast 378 435 3,800  Level Memphis Center
06:31AM 37.1922 -88.5914 48° Northeast 314 361 6,100 2,880 Climbing Memphis Center
06:32AM 37.2578 -88.5197 41° Northeast 309 356 9,600 3,300 Climbing Memphis Center
06:33AM 37.3319 -88.4606 32° Northeast 309 356 12,700 2,940 Climbing Memphis Center
06:34AM 37.3972 -88.3781 45° Northeast 314 361 15,500 3,000 Climbing Memphis Center
06:35AM 37.4202 -88.3365 42° Northeast  Level FlightAware Approximate
06:35AM 37.4314 -88.3339 46° Northeast 335 386 17,300  Level Indianapolis Center
06:36AM 37.4975 -88.2553 43° Northeast 341 392 19,600 2,160 Climbing Indianapolis Center
06:37AM 37.5764 -88.1639 43° Northeast 361 415 21,700 1,920 Climbing Indianapolis Center
06:38AM 37.6567 -88.0769 41° Northeast 374 430 23,500 1,740 Climbing Indianapolis Center
06:39AM 37.7367 -87.9800 44° Northeast 391 450 25,300 1,620 Climbing Indianapolis Center
06:40AM 37.8169 -87.8983 39° Northeast 398 458 26,800 1,500 Climbing Indianapolis Center
06:41AM 37.8997 -87.7950 45° Northeast 411 473 28,400 1,560 Climbing Indianapolis Center
06:42AM 37.9847 -87.6964 42° Northeast 414 476 30,000 1,440 Climbing Indianapolis Center
06:43AM 38.0883 -87.6311 26° Northeast 412 474 31,400 1,200 Climbing Indianapolis Center
06:44AM 38.1897 -87.5542 31° Northeast 419 482 32,500 1,080 Climbing Indianapolis Center
06:45AM 38.2872 -87.4622 36° Northeast 429 494 33,600 960 Climbing Indianapolis Center
06:46AM 38.3958 -87.3867 29° Northeast 439 505 34,500 660 Climbing Indianapolis Center
06:47AM 38.5039 -87.2994 32° Northeast 449 517 35,000 240 Climbing Indianapolis Center
06:48AM 38.6083 -87.2000 37° Northeast 459 528 35,000  Level Indianapolis Center
06:49AM 38.7211 -87.1214 29° Northeast 457 526 35,000  Level Indianapolis Center
06:50AM 38.8294 -87.0314 33° Northeast 458 527 35,000  Level Indianapolis Center
06:51AM 38.9350 -86.9347 35° Northeast 462 532 35,000  Level Indianapolis Center
06:52AM 39.0464 -86.8567 29° Northeast 455 524 35,000  Level Indianapolis Center
06:53AM 39.1581 -86.7561 35° Northeast 460 529 35,000  Level Indianapolis Center
06:54AM 39.2633 -86.6653 34° Northeast 457 526 35,000  Level Indianapolis Center
06:55AM 39.3725 -86.5864 29° Northeast 451 519 35,000  Level Indianapolis Center
06:56AM 39.4753 -86.4892 36° Northeast 459 528 35,000  Level Indianapolis Center
06:57AM 39.5811 -86.4011 33° Northeast 454 522 35,000  Level Indianapolis Center
06:58AM 39.6875 -86.3228 30° Northeast 453 521 35,000  Level Indianapolis Center
06:59AM 39.8106 -86.2011 37° Northeast 460 529 35,000  Level Indianapolis Center
07:00AM 39.9119 -86.1239 30° Northeast 456 525 35,000  Level Indianapolis Center
07:01AM 40.0183 -86.0392 31° Northeast 452 520 35,000  Level Indianapolis Center
07:02AM 40.1197 -85.9378 37° Northeast 460 529 35,000 -60 Level Indianapolis Center
07:03AM 40.2044 -85.8689 32° Northeast 452 520 34,900 -600 Descending Chicago Center
07:04AM 40.3319 -85.7678 31° Northeast 447 514 33,900 -960 Descending Chicago Center
07:05AM 40.4364 -85.6739 34° Northeast 459 528 33,000 -900 Descending Chicago Center
07:06AM 40.5506 -85.6267 17° North 435 501 32,200 -840 Descending Chicago Center
07:07AM 40.6664 -85.5869 15° North 432 497 31,400 -1,140 Descending Chicago Center
07:08AM 40.7472 -85.4853 44° Northeast 455 524 30,000 -1,620 Descending Chicago Center
07:09AM 40.8331 -85.3614 47° Northeast 458 527 28,200 -1,380 Descending Chicago Center
07:10AM 40.9631 -85.2669 29° Northeast 446 513 27,300 -1,080 Descending Chicago Center
07:11AM 41.0700 -85.1858 30° Northeast 445 512 26,100 -1,500 Descending Chicago Center
07:12AM 41.1786 -85.1258 23° Northeast 430 495 24,300 -1,680 Descending Chicago Center
07:13AM 41.2839 -85.0714 21° North 414 476 22,800 -1,140 Descending Chicago Center
07:14AM 41.3844 -85.0044 27° Northeast 409 471 22,100 -660 Descending Chicago Center
07:15AM 41.4900 -84.9758 11° North 392 451 21,500 -600 Descending Chicago Center
07:16AM 41.5956 -84.9597 North 386 444 21,000 -780 Descending Chicago Center
07:17AM 41.6983 -84.9258 14° North 385 443 20,000 -960 Descending Chicago Center
07:18AM 41.8022 -84.8864 16° North 389 448 19,100 -1,020 Descending Chicago Center
07:19AM 41.9264 -84.8567 10° North 381 438 18,000 -1,080 Descending Chicago Center
07:20AM 41.9686 -84.7267 66° East 407 468 17,000 -1,020 Descending Chicago Center
07:22AM 41.9692 -84.5678 90° East 406 467 16,000 -1,140 Descending Chicago Center
07:23AM 41.9675 -84.4192 91° East 402 463 14,700 -1,860 Descending Chicago Center
07:24AM 41.9719 -84.2914 87° East 349 402 12,300 -2,400 Descending Chicago Center
07:24AM 41.9681 -84.2503 97° East 361 415 11,600 -2,580 Descending Cleveland Center
07:24AM 41.9714 -84.2142 83° East 341 392 10,900 -1,500 Descending Cleveland Center
07:25AM 41.9678 -84.1272 93° East 345 397 10,100 -900 Descending Cleveland Center
07:25AM 41.9686 -84.0967 88° East 321 369 10,000 -120 Descending Cleveland Center
07:26AM 41.9878 -84.0194 72° East 300 345 10,000  Level Cleveland Center
07:26AM 42.0114 -83.9956 37° Northeast 303 349 10,000 -600 Level Cleveland Center
07:27AM 42.0425 -83.9331 56° Northeast 290 334 9,400 -1,200 Descending Cleveland Center
07:27AM 42.0639 -83.9144 33° Northeast 283 326 8,800 -1,740 Descending Cleveland Center
07:28AM 42.1081 -83.8972 16° North 245 282 7,700 -1,800 Descending Cleveland Center
07:28AM 42.1433 -83.9019 354° North 253 291 6,800 -1,620 Descending Cleveland Center
07:29AM 42.1811 -83.8897 13° North 239 275 6,100 -1,620 Descending Cleveland Center
07:29AM 42.2111 -83.8689 27° Northeast 269 310 5,200 -1,500 Descending Cleveland Center
07:30AM 42.2711 -83.8047 38° Northeast 258 297 3,800 -900 Descending Cleveland Center
07:31AM 42.2694 -83.7147 91° East 212 244 3,300 -600 Descending Cleveland Center
07:32AM 42.2778 -83.6422 81° East 183 211 2,700 -420 Descending Cleveland Center
07:33AM 42.2875 -83.5836 77° East 168 193 2,600 -60 Descending Cleveland Center
07:34AM 42.3078 -83.5258 65° Northeast 166 191 2,600  Level Cleveland Center